sensor_id;sensor_type;location;lat;lon;timestamp;P1;durP1;ratioP1;P2;durP2;ratioP2
30571;SDS011;17348;50.948;10.696;2023-07-09T00:00:34;11.80;;;6.20;;
30571;SDS011;17348;50.948;10.696;2023-07-09T00:03:36;11.50;;;6.18;;
30571;SDS011;17348;50.948;10.696;2023-07-09T00:06:38;12.68;;;5.53;;
30571;SDS011;17348;50.948;10.696;2023-07-09T00:09:42;10.93;;;6.05;;
30571;SDS011;17348;50.948;10.696;2023-07-09T00:12:44;13.18;;;6.35;;
30571;SDS011;17348;50.948;10.696;2023-07-09T00:15:49;16.05;;;7.32;;
30571;SDS011;17348;50.948;10.696;2023-07-09T00:18:51;12.13;;;5.97;;
30571;SDS011;17348;50.948;10.696;2023-07-09T00:21:54;10.35;;;6.15;;
30571;SDS011;17348;50.948;10.696;2023-07-09T00:24:56;13.07;;;6.40;;
30571;SDS011;17348;50.948;10.696;2023-07-09T00:27:58;12.75;;;6.93;;
30571;SDS011;17348;50.948;10.696;2023-07-09T00:31:02;10.38;;;6.32;;
30571;SDS011;17348;50.948;10.696;2023-07-09T00:34:04;9.55;;;6.72;;
30571;SDS011;17348;50.948;10.696;2023-07-09T00:37:09;12.70;;;7.10;;
30571;SDS011;17348;50.948;10.696;2023-07-09T00:40:17;10.13;;;6.68;;
30571;SDS011;17348;50.948;10.696;2023-07-09T00:43:21;10.95;;;6.78;;
30571;SDS011;17348;50.948;10.696;2023-07-09T00:50:06;16.88;;;6.55;;
30571;SDS011;17348;50.948;10.696;2023-07-09T00:53:13;9.32;;;6.13;;
30571;SDS011;17348;50.948;10.696;2023-07-09T00:56:24;14.30;;;5.68;;
30571;SDS011;17348;50.948;10.696;2023-07-09T00:59:30;12.50;;;6.18;;
30571;SDS011;17348;50.948;10.696;2023-07-09T01:02:34;9.00;;;5.63;;
30571;SDS011;17348;50.948;10.696;2023-07-09T01:05:38;12.27;;;6.22;;
30571;SDS011;17348;50.948;10.696;2023-07-09T01:08:42;13.45;;;6.50;;
30571;SDS011;17348;50.948;10.696;2023-07-09T01:11:45;13.35;;;6.15;;
30571;SDS011;17348;50.948;10.696;2023-07-09T01:14:47;11.07;;;5.53;;
30571;SDS011;17348;50.948;10.696;2023-07-09T01:17:52;11.80;;;6.05;;
30571;SDS011;17348;50.948;10.696;2023-07-09T01:21:01;11.88;;;5.80;;
30571;SDS011;17348;50.948;10.696;2023-07-09T01:24:14;11.18;;;6.25;;
30571;SDS011;17348;50.948;10.696;2023-07-09T01:27:40;15.88;;;6.35;;
30571;SDS011;17348;50.948;10.696;2023-07-09T01:30:44;9.90;;;6.05;;
30571;SDS011;17348;50.948;10.696;2023-07-09T01:33:46;10.43;;;5.80;;
30571;SDS011;17348;50.948;10.696;2023-07-09T01:36:50;9.63;;;5.45;;
30571;SDS011;17348;50.948;10.696;2023-07-09T01:39:54;9.55;;;5.68;;
30571;SDS011;17348;50.948;10.696;2023-07-09T01:42:56;8.98;;;5.43;;
30571;SDS011;17348;50.948;10.696;2023-07-09T01:46:00;16.95;;;6.68;;
30571;SDS011;17348;50.948;10.696;2023-07-09T01:49:02;11.82;;;6.30;;
30571;SDS011;17348;50.948;10.696;2023-07-09T01:52:09;8.80;;;5.40;;
30571;SDS011;17348;50.948;10.696;2023-07-09T01:55:13;10.45;;;6.28;;
30571;SDS011;17348;50.948;10.696;2023-07-09T01:58:17;12.82;;;5.45;;
30571;SDS011;17348;50.948;10.696;2023-07-09T02:01:19;11.60;;;6.35;;
30571;SDS011;17348;50.948;10.696;2023-07-09T02:04:22;10.73;;;5.35;;
30571;SDS011;17348;50.948;10.696;2023-07-09T02:07:29;13.98;;;6.32;;
30571;SDS011;17348;50.948;10.696;2023-07-09T02:10:31;12.52;;;6.18;;
30571;SDS011;17348;50.948;10.696;2023-07-09T02:13:33;10.82;;;6.38;;
30571;SDS011;17348;50.948;10.696;2023-07-09T02:16:36;11.50;;;6.43;;
30571;SDS011;17348;50.948;10.696;2023-07-09T02:19:38;12.23;;;6.57;;
30571;SDS011;17348;50.948;10.696;2023-07-09T02:22:42;10.95;;;6.18;;
30571;SDS011;17348;50.948;10.696;2023-07-09T02:25:45;11.52;;;6.00;;
30571;SDS011;17348;50.948;10.696;2023-07-09T02:28:50;9.90;;;6.03;;
30571;SDS011;17348;50.948;10.696;2023-07-09T02:31:54;10.38;;;6.10;;
30571;SDS011;17348;50.948;10.696;2023-07-09T02:34:58;13.48;;;6.32;;
30571;SDS011;17348;50.948;10.696;2023-07-09T02:38:02;12.40;;;6.63;;
30571;SDS011;17348;50.948;10.696;2023-07-09T02:41:05;10.43;;;5.85;;
30571;SDS011;17348;50.948;10.696;2023-07-09T02:44:07;12.18;;;5.63;;
30571;SDS011;17348;50.948;10.696;2023-07-09T02:47:10;11.40;;;6.15;;
30571;SDS011;17348;50.948;10.696;2023-07-09T02:50:13;13.02;;;5.63;;
30571;SDS011;17348;50.948;10.696;2023-07-09T02:53:17;10.38;;;6.13;;
30571;SDS011;17348;50.948;10.696;2023-07-09T02:56:19;10.73;;;6.18;;
30571;SDS011;17348;50.948;10.696;2023-07-09T02:59:21;12.45;;;7.25;;
30571;SDS011;17348;50.948;10.696;2023-07-09T03:02:24;11.10;;;6.53;;
30571;SDS011;17348;50.948;10.696;2023-07-09T03:05:27;12.75;;;6.55;;
30571;SDS011;17348;50.948;10.696;2023-07-09T03:08:30;12.90;;;6.60;;
30571;SDS011;17348;50.948;10.696;2023-07-09T03:11:33;10.68;;;6.05;;
30571;SDS011;17348;50.948;10.696;2023-07-09T03:14:38;9.93;;;5.63;;
30571;SDS011;17348;50.948;10.696;2023-07-09T03:17:40;16.58;;;5.78;;
30571;SDS011;17348;50.948;10.696;2023-07-09T03:20:42;13.82;;;6.88;;
30571;SDS011;17348;50.948;10.696;2023-07-09T03:23:46;14.18;;;6.40;;
30571;SDS011;17348;50.948;10.696;2023-07-09T03:26:48;10.82;;;6.20;;
30571;SDS011;17348;50.948;10.696;2023-07-09T03:29:51;15.30;;;6.90;;
30571;SDS011;17348;50.948;10.696;2023-07-09T03:32:53;10.85;;;6.53;;
30571;SDS011;17348;50.948;10.696;2023-07-09T03:35:55;10.80;;;6.60;;
30571;SDS011;17348;50.948;10.696;2023-07-09T03:38:59;17.95;;;6.63;;
30571;SDS011;17348;50.948;10.696;2023-07-09T03:42:01;11.20;;;6.28;;
30571;SDS011;17348;50.948;10.696;2023-07-09T03:45:04;10.48;;;6.13;;
30571;SDS011;17348;50.948;10.696;2023-07-09T03:48:08;12.70;;;6.35;;
30571;SDS011;17348;50.948;10.696;2023-07-09T03:51:11;13.73;;;6.55;;
30571;SDS011;17348;50.948;10.696;2023-07-09T03:54:15;12.45;;;6.97;;
30571;SDS011;17348;50.948;10.696;2023-07-09T03:57:17;13.48;;;6.63;;
30571;SDS011;17348;50.948;10.696;2023-07-09T04:00:19;12.40;;;6.45;;
30571;SDS011;17348;50.948;10.696;2023-07-09T04:03:22;15.18;;;6.75;;
30571;SDS011;17348;50.948;10.696;2023-07-09T04:06:26;10.15;;;6.07;;
30571;SDS011;17348;50.948;10.696;2023-07-09T04:09:30;14.13;;;6.68;;
30571;SDS011;17348;50.948;10.696;2023-07-09T04:12:32;12.75;;;6.18;;
30571;SDS011;17348;50.948;10.696;2023-07-09T04:15:35;9.80;;;5.90;;
30571;SDS011;17348;50.948;10.696;2023-07-09T04:18:38;12.48;;;5.70;;
30571;SDS011;17348;50.948;10.696;2023-07-09T04:21:40;10.38;;;5.97;;
30571;SDS011;17348;50.948;10.696;2023-07-09T04:24:44;11.57;;;5.95;;
30571;SDS011;17348;50.948;10.696;2023-07-09T04:27:46;30.38;;;7.07;;
30571;SDS011;17348;50.948;10.696;2023-07-09T04:30:50;15.43;;;6.13;;
30571;SDS011;17348;50.948;10.696;2023-07-09T04:33:53;13.93;;;6.18;;
30571;SDS011;17348;50.948;10.696;2023-07-09T04:36:55;12.00;;;6.22;;
30571;SDS011;17348;50.948;10.696;2023-07-09T04:39:59;15.15;;;5.85;;
30571;SDS011;17348;50.948;10.696;2023-07-09T04:43:01;9.98;;;5.50;;
30571;SDS011;17348;50.948;10.696;2023-07-09T04:46:03;10.10;;;5.75;;
30571;SDS011;17348;50.948;10.696;2023-07-09T04:49:06;14.38;;;6.45;;
30571;SDS011;17348;50.948;10.696;2023-07-09T04:52:08;9.35;;;5.63;;
30571;SDS011;17348;50.948;10.696;2023-07-09T04:55:13;11.90;;;5.63;;
30571;SDS011;17348;50.948;10.696;2023-07-09T04:58:19;10.20;;;5.75;;
30571;SDS011;17348;50.948;10.696;2023-07-09T05:01:21;9.75;;;6.07;;
30571;SDS011;17348;50.948;10.696;2023-07-09T05:04:24;14.80;;;6.50;;
30571;SDS011;17348;50.948;10.696;2023-07-09T05:07:26;14.35;;;5.90;;
30571;SDS011;17348;50.948;10.696;2023-07-09T05:10:30;13.88;;;6.70;;
30571;SDS011;17348;50.948;10.696;2023-07-09T05:13:32;9.32;;;6.30;;
30571;SDS011;17348;50.948;10.696;2023-07-09T05:16:34;14.32;;;5.88;;
30571;SDS011;17348;50.948;10.696;2023-07-09T05:19:37;15.73;;;5.25;;
30571;SDS011;17348;50.948;10.696;2023-07-09T05:22:39;10.50;;;6.25;;
30571;SDS011;17348;50.948;10.696;2023-07-09T05:25:43;7.78;;;5.75;;
30571;SDS011;17348;50.948;10.696;2023-07-09T05:28:45;14.45;;;5.65;;
30571;SDS011;17348;50.948;10.696;2023-07-09T05:31:51;12.55;;;5.75;;
30571;SDS011;17348;50.948;10.696;2023-07-09T05:34:53;9.00;;;5.47;;
30571;SDS011;17348;50.948;10.696;2023-07-09T05:37:56;13.82;;;6.10;;
30571;SDS011;17348;50.948;10.696;2023-07-09T05:41:00;10.07;;;5.78;;
30571;SDS011;17348;50.948;10.696;2023-07-09T05:44:03;13.93;;;6.00;;
30571;SDS011;17348;50.948;10.696;2023-07-09T05:47:08;10.52;;;6.03;;
30571;SDS011;17348;50.948;10.696;2023-07-09T05:50:10;10.18;;;5.35;;
30571;SDS011;17348;50.948;10.696;2023-07-09T05:53:12;23.15;;;6.35;;
30571;SDS011;17348;50.948;10.696;2023-07-09T05:56:16;12.18;;;5.68;;
30571;SDS011;17348;50.948;10.696;2023-07-09T05:59:18;10.05;;;4.75;;
30571;SDS011;17348;50.948;10.696;2023-07-09T06:02:21;11.38;;;5.95;;
30571;SDS011;17348;50.948;10.696;2023-07-09T06:05:23;10.05;;;6.03;;
30571;SDS011;17348;50.948;10.696;2023-07-09T06:08:26;11.55;;;5.50;;
30571;SDS011;17348;50.948;10.696;2023-07-09T06:11:29;10.23;;;6.45;;
30571;SDS011;17348;50.948;10.696;2023-07-09T06:14:32;10.95;;;6.60;;
30571;SDS011;17348;50.948;10.696;2023-07-09T06:17:35;11.73;;;6.22;;
30571;SDS011;17348;50.948;10.696;2023-07-09T06:20:37;11.15;;;6.20;;
30571;SDS011;17348;50.948;10.696;2023-07-09T06:23:40;10.57;;;6.13;;
30571;SDS011;17348;50.948;10.696;2023-07-09T06:26:44;11.25;;;5.70;;
30571;SDS011;17348;50.948;10.696;2023-07-09T06:29:46;17.20;;;6.50;;
30571;SDS011;17348;50.948;10.696;2023-07-09T06:32:49;14.30;;;6.40;;
30571;SDS011;17348;50.948;10.696;2023-07-09T06:35:52;11.25;;;5.72;;
30571;SDS011;17348;50.948;10.696;2023-07-09T06:38:56;14.73;;;6.93;;
30571;SDS011;17348;50.948;10.696;2023-07-09T06:42:00;11.85;;;6.18;;
30571;SDS011;17348;50.948;10.696;2023-07-09T06:45:02;11.82;;;6.40;;
30571;SDS011;17348;50.948;10.696;2023-07-09T06:48:05;17.65;;;6.97;;
30571;SDS011;17348;50.948;10.696;2023-07-09T06:51:07;20.50;;;7.45;;
30571;SDS011;17348;50.948;10.696;2023-07-09T06:54:10;13.77;;;6.50;;
30571;SDS011;17348;50.948;10.696;2023-07-09T06:57:17;12.95;;;7.22;;
30571;SDS011;17348;50.948;10.696;2023-07-09T07:00:19;11.90;;;5.88;;
30571;SDS011;17348;50.948;10.696;2023-07-09T07:03:22;12.55;;;6.40;;
30571;SDS011;17348;50.948;10.696;2023-07-09T07:06:25;9.65;;;6.35;;
30571;SDS011;17348;50.948;10.696;2023-07-09T07:09:27;12.85;;;5.82;;
30571;SDS011;17348;50.948;10.696;2023-07-09T07:12:40;17.05;;;6.53;;
30571;SDS011;17348;50.948;10.696;2023-07-09T07:15:44;16.05;;;6.90;;
30571;SDS011;17348;50.948;10.696;2023-07-09T07:18:51;8.80;;;5.80;;
30571;SDS011;17348;50.948;10.696;2023-07-09T07:21:53;17.42;;;5.97;;
30571;SDS011;17348;50.948;10.696;2023-07-09T07:24:55;11.63;;;5.72;;
30571;SDS011;17348;50.948;10.696;2023-07-09T07:27:59;12.52;;;6.07;;
30571;SDS011;17348;50.948;10.696;2023-07-09T07:31:02;17.15;;;6.20;;
30571;SDS011;17348;50.948;10.696;2023-07-09T07:34:05;11.57;;;6.00;;
30571;SDS011;17348;50.948;10.696;2023-07-09T07:37:07;16.20;;;5.70;;
30571;SDS011;17348;50.948;10.696;2023-07-09T07:40:10;9.40;;;5.82;;
30571;SDS011;17348;50.948;10.696;2023-07-09T07:43:14;7.13;;;5.28;;
30571;SDS011;17348;50.948;10.696;2023-07-09T07:46:16;12.10;;;5.20;;
30571;SDS011;17348;50.948;10.696;2023-07-09T07:49:18;9.40;;;5.88;;
30571;SDS011;17348;50.948;10.696;2023-07-09T07:52:21;13.65;;;6.53;;
30571;SDS011;17348;50.948;10.696;2023-07-09T07:55:23;8.57;;;4.95;;
30571;SDS011;17348;50.948;10.696;2023-07-09T07:58:27;11.80;;;5.85;;
30571;SDS011;17348;50.948;10.696;2023-07-09T08:01:30;11.05;;;5.63;;
30571;SDS011;17348;50.948;10.696;2023-07-09T08:04:33;12.45;;;6.70;;
30571;SDS011;17348;50.948;10.696;2023-07-09T08:07:35;13.82;;;5.18;;
30571;SDS011;17348;50.948;10.696;2023-07-09T08:10:39;7.88;;;5.75;;
30571;SDS011;17348;50.948;10.696;2023-07-09T08:13:43;10.82;;;5.55;;
30571;SDS011;17348;50.948;10.696;2023-07-09T08:16:46;11.45;;;6.15;;
30571;SDS011;17348;50.948;10.696;2023-07-09T08:19:49;11.02;;;6.07;;
30571;SDS011;17348;50.948;10.696;2023-07-09T08:22:53;12.18;;;5.35;;
30571;SDS011;17348;50.948;10.696;2023-07-09T08:25:56;10.68;;;5.90;;
30571;SDS011;17348;50.948;10.696;2023-07-09T08:29:00;13.27;;;5.82;;
30571;SDS011;17348;50.948;10.696;2023-07-09T08:32:03;14.55;;;4.88;;
30571;SDS011;17348;50.948;10.696;2023-07-09T08:35:06;9.05;;;5.35;;
30571;SDS011;17348;50.948;10.696;2023-07-09T08:38:11;13.48;;;5.53;;
30571;SDS011;17348;50.948;10.696;2023-07-09T08:41:17;10.48;;;5.10;;
30571;SDS011;17348;50.948;10.696;2023-07-09T08:44:39;8.07;;;4.78;;
30571;SDS011;17348;50.948;10.696;2023-07-09T08:47:57;8.38;;;4.88;;
30571;SDS011;17348;50.948;10.696;2023-07-09T08:51:08;10.32;;;5.47;;
30571;SDS011;17348;50.948;10.696;2023-07-09T08:54:17;8.88;;;5.05;;
30571;SDS011;17348;50.948;10.696;2023-07-09T08:57:26;7.43;;;4.65;;
30571;SDS011;17348;50.948;10.696;2023-07-09T09:00:37;8.65;;;4.82;;
30571;SDS011;17348;50.948;10.696;2023-07-09T09:03:47;11.82;;;4.97;;
30571;SDS011;17348;50.948;10.696;2023-07-09T09:06:53;8.15;;;4.43;;
30571;SDS011;17348;50.948;10.696;2023-07-09T09:10:03;7.40;;;4.57;;
30571;SDS011;17348;50.948;10.696;2023-07-09T09:13:08;8.18;;;4.88;;
30571;SDS011;17348;50.948;10.696;2023-07-09T09:16:17;6.47;;;4.40;;
30571;SDS011;17348;50.948;10.696;2023-07-09T09:19:27;7.70;;;4.53;;
30571;SDS011;17348;50.948;10.696;2023-07-09T09:22:36;10.05;;;4.50;;
30571;SDS011;17348;50.948;10.696;2023-07-09T09:25:46;11.02;;;4.63;;
30571;SDS011;17348;50.948;10.696;2023-07-09T09:28:51;8.52;;;4.60;;
30571;SDS011;17348;50.948;10.696;2023-07-09T09:31:56;13.73;;;4.65;;
30571;SDS011;17348;50.948;10.696;2023-07-09T09:35:10;9.43;;;4.07;;
30571;SDS011;17348;50.948;10.696;2023-07-09T09:38:15;9.05;;;4.60;;
30571;SDS011;17348;50.948;10.696;2023-07-09T09:41:20;8.10;;;4.28;;
30571;SDS011;17348;50.948;10.696;2023-07-09T09:44:25;10.10;;;4.47;;
30571;SDS011;17348;50.948;10.696;2023-07-09T09:47:29;8.57;;;3.55;;
30571;SDS011;17348;50.948;10.696;2023-07-09T09:50:32;6.18;;;3.75;;
30571;SDS011;17348;50.948;10.696;2023-07-09T09:53:37;11.20;;;3.78;;
30571;SDS011;17348;50.948;10.696;2023-07-09T09:56:42;10.23;;;4.03;;
30571;SDS011;17348;50.948;10.696;2023-07-09T09:59:44;11.38;;;4.13;;
30571;SDS011;17348;50.948;10.696;2023-07-09T10:02:49;7.38;;;3.60;;
30571;SDS011;17348;50.948;10.696;2023-07-09T10:05:54;6.88;;;3.40;;
30571;SDS011;17348;50.948;10.696;2023-07-09T10:09:00;6.28;;;3.22;;
30571;SDS011;17348;50.948;10.696;2023-07-09T10:12:10;7.55;;;3.25;;
30571;SDS011;17348;50.948;10.696;2023-07-09T10:15:23;11.10;;;3.65;;
30571;SDS011;17348;50.948;10.696;2023-07-09T10:18:41;11.40;;;3.80;;
30571;SDS011;17348;50.948;10.696;2023-07-09T10:21:53;6.70;;;3.25;;
30571;SDS011;17348;50.948;10.696;2023-07-09T10:25:00;11.13;;;3.55;;
30571;SDS011;17348;50.948;10.696;2023-07-09T10:28:15;9.55;;;3.90;;
30571;SDS011;17348;50.948;10.696;2023-07-09T10:31:31;8.77;;;3.15;;
30571;SDS011;17348;50.948;10.696;2023-07-09T10:34:45;5.05;;;3.00;;
30571;SDS011;17348;50.948;10.696;2023-07-09T10:38:00;9.52;;;3.17;;
30571;SDS011;17348;50.948;10.696;2023-07-09T10:41:09;7.28;;;3.50;;
30571;SDS011;17348;50.948;10.696;2023-07-09T10:44:15;10.40;;;3.45;;
30571;SDS011;17348;50.948;10.696;2023-07-09T10:47:23;12.75;;;3.70;;
30571;SDS011;17348;50.948;10.696;2023-07-09T10:53:36;7.63;;;3.47;;
30571;SDS011;17348;50.948;10.696;2023-07-09T10:56:42;8.88;;;3.45;;
30571;SDS011;17348;50.948;10.696;2023-07-09T10:59:49;14.38;;;3.58;;
30571;SDS011;17348;50.948;10.696;2023-07-09T11:02:54;6.75;;;3.47;;
30571;SDS011;17348;50.948;10.696;2023-07-09T11:06:03;10.82;;;3.67;;
30571;SDS011;17348;50.948;10.696;2023-07-09T11:09:07;7.53;;;2.97;;
30571;SDS011;17348;50.948;10.696;2023-07-09T11:12:17;6.43;;;3.75;;
30571;SDS011;17348;50.948;10.696;2023-07-09T11:15:27;7.90;;;3.03;;
30571;SDS011;17348;50.948;10.696;2023-07-09T11:18:36;6.20;;;3.70;;
30571;SDS011;17348;50.948;10.696;2023-07-09T11:21:44;7.75;;;3.72;;
30571;SDS011;17348;50.948;10.696;2023-07-09T11:25:05;8.05;;;3.63;;
30571;SDS011;17348;50.948;10.696;2023-07-09T11:28:10;5.40;;;3.10;;
30571;SDS011;17348;50.948;10.696;2023-07-09T11:31:16;10.70;;;3.85;;
30571;SDS011;17348;50.948;10.696;2023-07-09T11:34:22;4.77;;;2.80;;
30571;SDS011;17348;50.948;10.696;2023-07-09T11:37:31;6.07;;;2.90;;
30571;SDS011;17348;50.948;10.696;2023-07-09T11:40:34;4.40;;;2.67;;
30571;SDS011;17348;50.948;10.696;2023-07-09T11:43:47;6.97;;;3.50;;
30571;SDS011;17348;50.948;10.696;2023-07-09T11:46:52;7.38;;;3.58;;
30571;SDS011;17348;50.948;10.696;2023-07-09T11:50:02;11.00;;;2.75;;
30571;SDS011;17348;50.948;10.696;2023-07-09T11:53:15;10.57;;;3.47;;
30571;SDS011;17348;50.948;10.696;2023-07-09T11:56:24;6.63;;;3.10;;
30571;SDS011;17348;50.948;10.696;2023-07-09T11:59:26;7.47;;;3.22;;
30571;SDS011;17348;50.948;10.696;2023-07-09T12:02:30;7.15;;;2.88;;
30571;SDS011;17348;50.948;10.696;2023-07-09T12:05:36;7.90;;;3.13;;
30571;SDS011;17348;50.948;10.696;2023-07-09T12:08:41;6.38;;;3.70;;
30571;SDS011;17348;50.948;10.696;2023-07-09T12:11:45;6.13;;;3.05;;
30571;SDS011;17348;50.948;10.696;2023-07-09T12:14:49;6.22;;;3.20;;
30571;SDS011;17348;50.948;10.696;2023-07-09T12:17:52;12.65;;;3.55;;
30571;SDS011;17348;50.948;10.696;2023-07-09T12:20:56;5.97;;;2.85;;
30571;SDS011;17348;50.948;10.696;2023-07-09T12:24:00;9.45;;;3.50;;
30571;SDS011;17348;50.948;10.696;2023-07-09T12:27:04;6.13;;;3.25;;
30571;SDS011;17348;50.948;10.696;2023-07-09T12:30:20;5.88;;;3.08;;
30571;SDS011;17348;50.948;10.696;2023-07-09T12:33:23;7.97;;;3.85;;
30571;SDS011;17348;50.948;10.696;2023-07-09T12:36:27;6.70;;;3.35;;
30571;SDS011;17348;50.948;10.696;2023-07-09T12:39:31;9.38;;;3.05;;
30571;SDS011;17348;50.948;10.696;2023-07-09T12:42:35;10.10;;;3.45;;
30571;SDS011;17348;50.948;10.696;2023-07-09T12:45:38;10.32;;;3.53;;
30571;SDS011;17348;50.948;10.696;2023-07-09T12:48:43;4.68;;;3.25;;
30571;SDS011;17348;50.948;10.696;2023-07-09T12:51:47;7.20;;;2.92;;
30571;SDS011;17348;50.948;10.696;2023-07-09T12:54:58;9.45;;;3.05;;
30571;SDS011;17348;50.948;10.696;2023-07-09T12:58:01;6.97;;;3.50;;
30571;SDS011;17348;50.948;10.696;2023-07-09T13:01:04;8.93;;;3.25;;
30571;SDS011;17348;50.948;10.696;2023-07-09T13:04:08;8.60;;;3.40;;
30571;SDS011;17348;50.948;10.696;2023-07-09T13:07:25;8.63;;;3.17;;
30571;SDS011;17348;50.948;10.696;2023-07-09T13:10:31;6.28;;;2.92;;
30571;SDS011;17348;50.948;10.696;2023-07-09T13:13:40;7.65;;;3.08;;
30571;SDS011;17348;50.948;10.696;2023-07-09T13:16:43;7.28;;;3.35;;
30571;SDS011;17348;50.948;10.696;2023-07-09T13:19:45;7.75;;;2.80;;
30571;SDS011;17348;50.948;10.696;2023-07-09T13:22:48;16.52;;;3.58;;
30571;SDS011;17348;50.948;10.696;2023-07-09T13:25:51;10.45;;;3.30;;
30571;SDS011;17348;50.948;10.696;2023-07-09T13:28:56;6.55;;;3.38;;
30571;SDS011;17348;50.948;10.696;2023-07-09T13:31:58;7.90;;;3.30;;
30571;SDS011;17348;50.948;10.696;2023-07-09T13:35:01;10.32;;;3.83;;
30571;SDS011;17348;50.948;10.696;2023-07-09T13:38:09;7.43;;;3.28;;
30571;SDS011;17348;50.948;10.696;2023-07-09T13:41:18;8.45;;;3.40;;
30571;SDS011;17348;50.948;10.696;2023-07-09T13:44:23;6.55;;;3.35;;
30571;SDS011;17348;50.948;10.696;2023-07-09T13:47:29;10.77;;;3.55;;
30571;SDS011;17348;50.948;10.696;2023-07-09T13:50:33;7.80;;;3.15;;
30571;SDS011;17348;50.948;10.696;2023-07-09T13:53:36;7.80;;;3.50;;
30571;SDS011;17348;50.948;10.696;2023-07-09T13:56:39;9.43;;;3.15;;
30571;SDS011;17348;50.948;10.696;2023-07-09T13:59:42;6.28;;;3.58;;
30571;SDS011;17348;50.948;10.696;2023-07-09T14:02:45;7.65;;;3.08;;
30571;SDS011;17348;50.948;10.696;2023-07-09T14:05:48;6.50;;;3.90;;
30571;SDS011;17348;50.948;10.696;2023-07-09T14:08:50;10.82;;;3.55;;
30571;SDS011;17348;50.948;10.696;2023-07-09T14:11:54;7.38;;;3.42;;
30571;SDS011;17348;50.948;10.696;2023-07-09T14:14:57;9.48;;;3.63;;
30571;SDS011;17348;50.948;10.696;2023-07-09T14:18:01;7.85;;;3.10;;
30571;SDS011;17348;50.948;10.696;2023-07-09T14:21:05;4.88;;;2.83;;
30571;SDS011;17348;50.948;10.696;2023-07-09T14:24:16;9.38;;;3.35;;
30571;SDS011;17348;50.948;10.696;2023-07-09T14:27:22;9.17;;;3.63;;
30571;SDS011;17348;50.948;10.696;2023-07-09T14:30:25;9.70;;;3.38;;
30571;SDS011;17348;50.948;10.696;2023-07-09T14:33:27;6.47;;;3.42;;
30571;SDS011;17348;50.948;10.696;2023-07-09T14:36:30;7.00;;;3.42;;
30571;SDS011;17348;50.948;10.696;2023-07-09T14:39:32;9.07;;;3.08;;
30571;SDS011;17348;50.948;10.696;2023-07-09T14:42:36;5.88;;;3.35;;
30571;SDS011;17348;50.948;10.696;2023-07-09T14:45:39;9.48;;;3.28;;
30571;SDS011;17348;50.948;10.696;2023-07-09T14:48:42;7.20;;;3.40;;
30571;SDS011;17348;50.948;10.696;2023-07-09T14:51:44;11.00;;;3.90;;
30571;SDS011;17348;50.948;10.696;2023-07-09T14:54:48;12.45;;;3.40;;
30571;SDS011;17348;50.948;10.696;2023-07-09T14:57:53;7.45;;;3.13;;
30571;SDS011;17348;50.948;10.696;2023-07-09T15:00:55;7.80;;;2.92;;
30571;SDS011;17348;50.948;10.696;2023-07-09T15:03:57;7.20;;;3.50;;
30571;SDS011;17348;50.948;10.696;2023-07-09T15:07:00;6.68;;;3.50;;
30571;SDS011;17348;50.948;10.696;2023-07-09T15:10:02;5.20;;;3.33;;
30571;SDS011;17348;50.948;10.696;2023-07-09T15:13:12;19.85;;;3.88;;
30571;SDS011;17348;50.948;10.696;2023-07-09T15:16:18;9.95;;;2.72;;
30571;SDS011;17348;50.948;10.696;2023-07-09T15:19:21;8.15;;;3.28;;
30571;SDS011;17348;50.948;10.696;2023-07-09T15:22:26;6.88;;;3.30;;
30571;SDS011;17348;50.948;10.696;2023-07-09T15:25:32;7.47;;;3.40;;
30571;SDS011;17348;50.948;10.696;2023-07-09T15:28:35;9.32;;;3.30;;
30571;SDS011;17348;50.948;10.696;2023-07-09T15:31:38;8.30;;;4.35;;
30571;SDS011;17348;50.948;10.696;2023-07-09T15:34:40;13.27;;;3.75;;
30571;SDS011;17348;50.948;10.696;2023-07-09T15:37:43;6.78;;;3.25;;
30571;SDS011;17348;50.948;10.696;2023-07-09T15:40:49;9.02;;;3.42;;
30571;SDS011;17348;50.948;10.696;2023-07-09T15:43:53;11.82;;;3.40;;
30571;SDS011;17348;50.948;10.696;2023-07-09T15:46:55;8.48;;;2.75;;
30571;SDS011;17348;50.948;10.696;2023-07-09T15:49:58;9.25;;;3.45;;
30571;SDS011;17348;50.948;10.696;2023-07-09T15:53:01;10.18;;;3.38;;
30571;SDS011;17348;50.948;10.696;2023-07-09T15:56:11;7.65;;;3.30;;
30571;SDS011;17348;50.948;10.696;2023-07-09T15:59:23;5.20;;;2.63;;
30571;SDS011;17348;50.948;10.696;2023-07-09T16:02:28;6.85;;;3.40;;
30571;SDS011;17348;50.948;10.696;2023-07-09T16:05:30;8.55;;;3.60;;
30571;SDS011;17348;50.948;10.696;2023-07-09T16:08:33;7.90;;;3.47;;
30571;SDS011;17348;50.948;10.696;2023-07-09T16:11:35;7.32;;;3.10;;
30571;SDS011;17348;50.948;10.696;2023-07-09T16:14:40;14.13;;;3.50;;
30571;SDS011;17348;50.948;10.696;2023-07-09T16:17:43;8.85;;;4.00;;
30571;SDS011;17348;50.948;10.696;2023-07-09T16:20:46;7.70;;;3.90;;
30571;SDS011;17348;50.948;10.696;2023-07-09T16:23:49;6.50;;;3.40;;
30571;SDS011;17348;50.948;10.696;2023-07-09T16:26:51;6.28;;;3.10;;
30571;SDS011;17348;50.948;10.696;2023-07-09T16:29:55;16.65;;;3.60;;
30571;SDS011;17348;50.948;10.696;2023-07-09T16:32:58;8.45;;;3.30;;
30571;SDS011;17348;50.948;10.696;2023-07-09T16:36:03;10.75;;;3.65;;
30571;SDS011;17348;50.948;10.696;2023-07-09T16:39:20;5.50;;;2.85;;
30571;SDS011;17348;50.948;10.696;2023-07-09T16:45:29;15.70;;;3.53;;
30571;SDS011;17348;50.948;10.696;2023-07-09T16:48:32;6.50;;;3.15;;
30571;SDS011;17348;50.948;10.696;2023-07-09T16:51:34;7.70;;;3.83;;
30571;SDS011;17348;50.948;10.696;2023-07-09T16:54:36;7.68;;;3.08;;
30571;SDS011;17348;50.948;10.696;2023-07-09T16:57:39;9.15;;;3.17;;
30571;SDS011;17348;50.948;10.696;2023-07-09T17:00:42;12.75;;;3.97;;
30571;SDS011;17348;50.948;10.696;2023-07-09T17:03:45;6.18;;;3.35;;
30571;SDS011;17348;50.948;10.696;2023-07-09T17:06:47;11.75;;;4.20;;
30571;SDS011;17348;50.948;10.696;2023-07-09T17:09:51;11.90;;;3.60;;
30571;SDS011;17348;50.948;10.696;2023-07-09T17:12:55;12.77;;;3.78;;
30571;SDS011;17348;50.948;10.696;2023-07-09T17:16:00;8.52;;;4.03;;
30571;SDS011;17348;50.948;10.696;2023-07-09T17:19:02;10.15;;;4.13;;
30571;SDS011;17348;50.948;10.696;2023-07-09T17:22:10;11.68;;;4.13;;
30571;SDS011;17348;50.948;10.696;2023-07-09T17:25:21;5.72;;;3.35;;
30571;SDS011;17348;50.948;10.696;2023-07-09T17:28:27;13.18;;;4.28;;
30571;SDS011;17348;50.948;10.696;2023-07-09T17:31:33;12.82;;;4.75;;
30571;SDS011;17348;50.948;10.696;2023-07-09T17:34:35;12.13;;;3.97;;
30571;SDS011;17348;50.948;10.696;2023-07-09T17:37:37;19.20;;;4.32;;
30571;SDS011;17348;50.948;10.696;2023-07-09T17:40:41;11.27;;;4.32;;
30571;SDS011;17348;50.948;10.696;2023-07-09T17:43:44;11.40;;;4.32;;
30571;SDS011;17348;50.948;10.696;2023-07-09T17:46:48;11.30;;;4.88;;
30571;SDS011;17348;50.948;10.696;2023-07-09T17:49:52;13.48;;;4.32;;
30571;SDS011;17348;50.948;10.696;2023-07-09T17:52:54;18.52;;;4.90;;
30571;SDS011;17348;50.948;10.696;2023-07-09T17:55:57;12.98;;;4.28;;
30571;SDS011;17348;50.948;10.696;2023-07-09T17:59:00;14.70;;;4.75;;
30571;SDS011;17348;50.948;10.696;2023-07-09T18:02:08;14.52;;;5.40;;
30571;SDS011;17348;50.948;10.696;2023-07-09T18:05:20;13.10;;;4.95;;
30571;SDS011;17348;50.948;10.696;2023-07-09T18:08:24;16.08;;;4.65;;
30571;SDS011;17348;50.948;10.696;2023-07-09T18:11:27;11.95;;;5.45;;
30571;SDS011;17348;50.948;10.696;2023-07-09T18:14:33;12.95;;;5.55;;